Time;durP1;ratioP1;P1;durP2;ratioP2;P2;SDS_P1;SDS_P2;PMS_P1;PMS_P2;Temp;Humidity;BMP_temperature;BMP_pressure;BME280_temperature;BME280_humidity;BME280_pressure;Samples;Min_cycle;Max_cycle;Signal;HPM_P1;HPM_P2
2023/09/25 00:00:34;;;;;;;332.23;86.32;;;;;;;;;;5036834;28;21420;-55
2023/09/25 00:03:00;;;;;;;316.63;86.68;;;;;;;;;;5037356;28;20502;-55
2023/09/25 00:05:26;;;;;;;359.15;77.95;;;;;;;;;;5033825;28;20445;-54
2023/09/25 00:07:52;;;;;;;327.15;77.95;;;;;;;;;;5035646;28;20632;-56
2023/09/25 00:10:17;;;;;;;385.48;74.53;;;;;;;;;;5035125;28;20248;-55
2023/09/25 00:12:42;;;;;;;336.73;75.25;;;;;;;;;;5038163;28;20377;-56
2023/09/25 00:15:08;;;;;;;304.83;69.38;;;;;;;;;;5037452;28;20328;-56
2023/09/25 00:17:33;;;;;;;222.65;70.53;;;;;;;;;;5037169;28;20103;-56
2023/09/25 00:19:59;;;;;;;320.50;82.30;;;;;;;;;;5039173;28;20025;-57
2023/09/25 00:22:24;;;;;;;269.67;75.90;;;;;;;;;;5038227;28;20078;-58
2023/09/25 00:24:50;;;;;;;281.70;74.73;;;;;;;;;;5040081;28;20066;-57
2023/09/25 00:27:15;;;;;;;359.98;77.57;;;;;;;;;;5038101;28;20274;-55
2023/09/25 00:29:41;;;;;;;258.50;71.97;;;;;;;;;;5039908;28;20491;-55
2023/09/25 00:32:06;;;;;;;309.42;77.38;;;;;;;;;;5037276;28;20032;-55
2023/09/25 00:34:31;;;;;;;325.27;87.15;;;;;;;;;;5039306;28;20044;-57
2023/09/25 00:36:57;;;;;;;298.77;90.38;;;;;;;;;;5038936;28;20067;-55
2023/09/25 00:39:22;;;;;;;451.20;97.78;;;;;;;;;;5037758;28;20422;-56
2023/09/25 00:41:48;;;;;;;310.90;92.32;;;;;;;;;;5039097;28;20506;-55
2023/09/25 00:44:13;;;;;;;349.40;82.63;;;;;;;;;;5042549;28;20085;-56
2023/09/25 00:46:39;;;;;;;313.90;84.85;;;;;;;;;;5043144;28;20087;-55
2023/09/25 00:49:04;;;;;;;290.05;84.15;;;;;;;;;;5025784;28;20821;-56
2023/09/25 00:51:29;;;;;;;260.67;74.13;;;;;;;;;;5041672;28;20029;-56
2023/09/25 00:53:55;;;;;;;291.75;73.53;;;;;;;;;;5042874;28;20255;-58
2023/09/25 00:56:20;;;;;;;426.73;87.20;;;;;;;;;;5041144;28;20407;-57
2023/09/25 00:58:46;;;;;;;296.65;85.43;;;;;;;;;;5043600;28;20037;-54
2023/09/25 01:01:11;;;;;;;384.35;88.68;;;;;;;;;;5041694;28;20414;-57
2023/09/25 01:03:37;;;;;;;295.95;86.90;;;;;;;;;;5043842;28;20029;-55
2023/09/25 01:06:04;;;;;;;264.23;85.45;;;;;;;;;;5043480;28;20033;-57
2023/09/25 01:08:30;;;;;;;333.95;87.90;;;;;;;;;;5041507;28;20099;-54
2023/09/25 01:10:55;;;;;;;308.65;86.78;;;;;;;;;;5042715;28;20529;-55
2023/09/25 01:13:20;;;;;;;317.70;87.72;;;;;;;;;;5024934;28;20021;-55
2023/09/25 01:15:45;;;;;;;333.50;89.60;;;;;;;;;;5043681;28;20165;-56
2023/09/25 01:18:12;;;;;;;323.13;92.38;;;;;;;;;;5044504;28;20282;-55
2023/09/25 01:20:37;;;;;;;288.60;90.38;;;;;;;;;;5044818;28;20029;-55
2023/09/25 01:23:03;;;;;;;406.42;91.85;;;;;;;;;;5042788;28;20669;-57
2023/09/25 01:25:29;;;;;;;294.58;78.93;;;;;;;;;;5042004;28;20033;-56
2023/09/25 01:27:54;;;;;;;320.20;83.75;;;;;;;;;;5043332;28;20033;-55
2023/09/25 01:30:19;;;;;;;421.10;92.85;;;;;;;;;;5041329;28;20533;-55
2023/09/25 01:32:46;;;;;;;315.15;73.20;;;;;;;;;;5042618;28;20373;-54
2023/09/25 01:35:14;;;;;;;345.95;76.32;;;;;;;;;;5041580;28;20036;-56
2023/09/25 01:37:43;;;;;;;325.20;78.90;;;;;;;;;;5024013;28;20017;-56
2023/09/25 01:40:12;;;;;;;292.52;79.45;;;;;;;;;;5041779;28;20044;-55
2023/09/25 01:42:37;;;;;;;332.70;81.10;;;;;;;;;;5042262;28;20017;-55
2023/09/25 01:45:03;;;;;;;342.20;82.35;;;;;;;;;;5042157;28;20027;-56
2023/09/25 01:47:28;;;;;;;275.92;81.13;;;;;;;;;;5040987;28;20029;-57
2023/09/25 01:49:54;;;;;;;357.05;84.65;;;;;;;;;;5024492;28;20037;-56
2023/09/25 01:52:19;;;;;;;386.47;87.80;;;;;;;;;;5041374;28;20563;-55
2023/09/25 01:54:44;;;;;;;296.33;84.70;;;;;;;;;;5042286;28;20671;-56
2023/09/25 01:57:09;;;;;;;285.47;71.87;;;;;;;;;;5041178;28;20279;-55
2023/09/25 01:59:35;;;;;;;304.15;77.93;;;;;;;;;;5042203;28;20255;-57
2023/09/25 02:02:00;;;;;;;273.88;78.57;;;;;;;;;;5041814;28;20036;-55
2023/09/25 02:04:25;;;;;;;364.98;80.88;;;;;;;;;;5041255;28;20070;-55
2023/09/25 02:06:50;;;;;;;289.55;77.38;;;;;;;;;;5041860;28;20039;-55
2023/09/25 02:09:16;;;;;;;300.75;80.20;;;;;;;;;;5041572;28;20033;-55
2023/09/25 02:11:41;;;;;;;334.13;82.60;;;;;;;;;;5040880;28;20037;-55
2023/09/25 02:14:06;;;;;;;295.33;82.43;;;;;;;;;;5041031;28;20021;-56
2023/09/25 02:16:31;;;;;;;333.70;83.83;;;;;;;;;;5040679;28;20268;-57
2023/09/25 02:18:57;;;;;;;331.10;83.40;;;;;;;;;;5041675;28;20262;-55
2023/09/25 02:21:22;;;;;;;348.58;82.65;;;;;;;;;;5040706;28;20267;-56
2023/09/25 02:23:47;;;;;;;352.08;85.55;;;;;;;;;;5041709;28;20025;-57
2023/09/25 02:26:13;;;;;;;391.25;86.57;;;;;;;;;;5038892;28;20029;-55
2023/09/25 02:28:38;;;;;;;308.88;84.20;;;;;;;;;;5042436;28;20056;-56
2023/09/25 02:31:03;;;;;;;316.15;85.50;;;;;;;;;;5041353;28;20124;-56
2023/09/25 02:33:29;;;;;;;276.90;84.87;;;;;;;;;;5040352;28;20299;-56
2023/09/25 02:36:03;;;;;;;329.03;85.77;;;;;;;;;;5041231;28;20598;-55
2023/09/25 02:38:29;;;;;;;339.42;77.75;;;;;;;;;;5041176;28;20271;-57
2023/09/25 02:40:54;;;;;;;324.65;65.93;;;;;;;;;;5040570;28;20033;-55
2023/09/25 02:43:19;;;;;;;361.50;66.10;;;;;;;;;;5040386;28;20118;-55
2023/09/25 02:45:44;;;;;;;312.03;79.10;;;;;;;;;;5039218;28;20056;-56
2023/09/25 02:48:10;;;;;;;294.05;70.35;;;;;;;;;;5041235;28;20260;-56
2023/09/25 02:50:35;;;;;;;273.47;75.30;;;;;;;;;;5040546;28;20037;-57
2023/09/25 02:53:00;;;;;;;308.10;79.05;;;;;;;;;;5023043;28;20279;-54
2023/09/25 02:55:25;;;;;;;314.73;82.77;;;;;;;;;;5039737;28;20021;-56
2023/09/25 02:57:51;;;;;;;319.73;89.20;;;;;;;;;;5041404;28;20286;-55
2023/09/25 03:00:16;;;;;;;396.67;97.18;;;;;;;;;;5039880;28;20318;-56
2023/09/25 03:02:42;;;;;;;388.73;88.00;;;;;;;;;;5040537;28;20470;-55
2023/09/25 03:05:08;;;;;;;295.40;85.80;;;;;;;;;;5039455;28;20017;-55
2023/09/25 03:07:33;;;;;;;254.43;82.97;;;;;;;;;;5040409;28;20090;-55
2023/09/25 03:09:58;;;;;;;325.92;87.13;;;;;;;;;;5040692;28;20039;-56
2023/09/25 03:12:23;;;;;;;420.73;96.10;;;;;;;;;;5039802;28;20048;-56
2023/09/25 03:14:49;;;;;;;311.37;89.53;;;;;;;;;;5041022;28;20534;-55
2023/09/25 03:17:14;;;;;;;315.90;76.60;;;;;;;;;;5038979;28;20610;-56
2023/09/25 03:19:40;;;;;;;299.95;82.97;;;;;;;;;;5040248;28;20255;-55
2023/09/25 03:22:05;;;;;;;263.70;71.80;;;;;;;;;;5039992;28;20098;-56
2023/09/25 03:24:30;;;;;;;363.42;87.80;;;;;;;;;;5039315;28;20017;-55
2023/09/25 03:26:55;;;;;;;331.35;86.88;;;;;;;;;;5039545;28;20037;-55
2023/09/25 03:29:21;;;;;;;342.65;89.32;;;;;;;;;;5039975;28;20025;-56
2023/09/25 03:31:46;;;;;;;349.73;89.25;;;;;;;;;;5039035;28;20574;-55
2023/09/25 03:34:11;;;;;;;305.27;89.32;;;;;;;;;;5039295;28;20557;-54
2023/09/25 03:36:37;;;;;;;334.35;94.88;;;;;;;;;;5038577;28;20260;-56
2023/09/25 03:39:02;;;;;;;383.65;85.43;;;;;;;;;;5039433;28;20021;-57
2023/09/25 03:41:28;;;;;;;321.02;89.63;;;;;;;;;;5038527;28;20738;-57
2023/09/25 03:43:53;;;;;;;344.70;95.95;;;;;;;;;;5039881;28;20515;-55
2023/09/25 03:46:18;;;;;;;428.30;93.28;;;;;;;;;;5038324;28;20084;-58
2023/09/25 03:48:43;;;;;;;268.63;82.75;;;;;;;;;;5039384;28;20017;-55
2023/09/25 03:51:09;;;;;;;330.50;84.55;;;;;;;;;;5038703;28;20494;-56
2023/09/25 03:53:34;;;;;;;347.90;81.20;;;;;;;;;;5038743;28;20100;-56
2023/09/25 03:55:59;;;;;;;273.57;76.87;;;;;;;;;;5038683;28;20329;-57
2023/09/25 03:58:24;;;;;;;439.77;94.88;;;;;;;;;;5038763;28;20329;-55
2023/09/25 04:00:52;;;;;;;305.17;74.43;;;;;;;;;;5038720;28;20063;-55
2023/09/25 04:03:17;;;;;;;346.65;86.10;;;;;;;;;;5038506;28;20252;-56
2023/09/25 04:05:43;;;;;;;268.15;80.72;;;;;;;;;;5038492;28;20029;-56
2023/09/25 04:08:08;;;;;;;339.10;83.85;;;;;;;;;;5038764;28;20037;-55
2023/09/25 04:10:34;;;;;;;373.48;91.22;;;;;;;;;;5037458;28;20605;-56
2023/09/25 04:13:00;;;;;;;308.08;93.22;;;;;;;;;;5039508;28;20037;-55
2023/09/25 04:15:26;;;;;;;423.17;99.22;;;;;;;;;;5038312;28;20039;-56
2023/09/25 04:17:52;;;;;;;320.52;96.28;;;;;;;;;;5041528;28;20013;-54
2023/09/25 04:20:24;;;;;;;394.88;99.70;;;;;;;;;;5042982;28;20017;-55
2023/09/25 04:22:50;;;;;;;393.40;89.55;;;;;;;;;;5042832;28;20021;-54
2023/09/25 04:25:21;;;;;;;344.30;86.97;;;;;;;;;;5040612;28;20052;-55
2023/09/25 04:27:47;;;;;;;313.15;86.78;;;;;;;;;;5043035;28;20087;-55
2023/09/25 04:30:14;;;;;;;341.48;89.75;;;;;;;;;;5043198;28;20032;-57
2023/09/25 04:32:41;;;;;;;337.13;89.00;;;;;;;;;;5041139;28;20032;-56
2023/09/25 04:35:07;;;;;;;384.38;79.82;;;;;;;;;;5043294;28;20428;-55
2023/09/25 04:37:33;;;;;;;353.00;87.88;;;;;;;;;;5041575;28;20151;-54
2023/09/25 04:39:58;;;;;;;314.52;88.75;;;;;;;;;;5042684;28;20032;-55
2023/09/25 04:42:23;;;;;;;433.90;85.27;;;;;;;;;;5042179;28;20045;-56
2023/09/25 04:44:48;;;;;;;340.70;86.82;;;;;;;;;;5043147;28;20263;-56
2023/09/25 04:47:14;;;;;;;331.35;76.65;;;;;;;;;;5042479;28;20044;-56
2023/09/25 04:49:39;;;;;;;397.90;88.87;;;;;;;;;;5041977;28;20469;-55
2023/09/25 04:52:05;;;;;;;310.40;82.90;;;;;;;;;;5043160;28;20787;-56
2023/09/25 04:54:31;;;;;;;337.75;80.88;;;;;;;;;;5041992;28;20876;-56
2023/09/25 04:56:56;;;;;;;382.33;89.53;;;;;;;;;;5041495;28;20065;-55
2023/09/25 04:59:21;;;;;;;376.38;80.97;;;;;;;;;;5042939;28;20071;-56
2023/09/25 05:01:47;;;;;;;307.57;83.27;;;;;;;;;;5042626;28;20040;-55
2023/09/25 05:04:12;;;;;;;326.42;89.03;;;;;;;;;;5042808;28;20633;-56
2023/09/25 05:06:38;;;;;;;315.52;88.00;;;;;;;;;;5040974;28;20025;-55
2023/09/25 05:09:03;;;;;;;325.50;82.72;;;;;;;;;;5043204;28;20045;-55
2023/09/25 05:11:29;;;;;;;462.60;92.57;;;;;;;;;;5041415;28;20047;-55
2023/09/25 05:13:54;;;;;;;345.25;91.45;;;;;;;;;;5024337;28;20229;-56
2023/09/25 05:16:19;;;;;;;414.75;87.93;;;;;;;;;;5040675;28;20110;-55
2023/09/25 05:18:45;;;;;;;379.38;89.32;;;;;;;;;;5042196;28;20505;-54
2023/09/25 05:21:10;;;;;;;333.38;82.88;;;;;;;;;;5041321;28;20491;-56
2023/09/25 05:23:35;;;;;;;339.85;87.00;;;;;;;;;;5041703;28;20024;-55
2023/09/25 05:26:01;;;;;;;421.15;90.90;;;;;;;;;;5040486;28;20053;-57
2023/09/25 05:28:26;;;;;;;394.73;92.40;;;;;;;;;;5040356;28;20037;-56
2023/09/25 05:30:55;;;;;;;340.00;91.45;;;;;;;;;;5041121;28;20124;-56
2023/09/25 05:33:20;;;;;;;430.65;96.50;;;;;;;;;;5040873;28;20032;-55
2023/09/25 05:35:46;;;;;;;305.10;84.35;;;;;;;;;;5040669;28;20025;-56
2023/09/25 05:38:12;;;;;;;266.83;80.90;;;;;;;;;;5042060;28;20024;-56
2023/09/25 05:40:37;;;;;;;336.35;85.40;;;;;;;;;;5039829;28;20040;-55
2023/09/25 05:43:02;;;;;;;328.63;81.78;;;;;;;;;;5041793;28;20341;-56
2023/09/25 05:45:28;;;;;;;421.98;81.35;;;;;;;;;;5039300;28;20355;-55
2023/09/25 05:47:53;;;;;;;332.17;78.78;;;;;;;;;;5041653;28;20025;-55
2023/09/25 05:50:18;;;;;;;322.73;80.07;;;;;;;;;;5039756;28;20025;-54
2023/09/25 05:52:43;;;;;;;334.73;68.60;;;;;;;;;;5040855;28;20630;-55
2023/09/25 05:55:10;;;;;;;309.13;66.40;;;;;;;;;;5041047;28;20017;-56
2023/09/25 05:57:35;;;;;;;365.63;77.95;;;;;;;;;;5040938;28;20044;-54
2023/09/25 06:00:01;;;;;;;325.13;78.10;;;;;;;;;;5041624;28;20029;-56
2023/09/25 06:02:27;;;;;;;308.05;71.57;;;;;;;;;;5040508;28;21186;-56
2023/09/25 06:04:52;;;;;;;307.65;71.13;;;;;;;;;;5040758;28;20021;-54
2023/09/25 06:07:18;;;;;;;341.38;67.55;;;;;;;;;;5040048;28;20379;-56
2023/09/25 06:09:44;;;;;;;278.88;70.25;;;;;;;;;;5040283;28;20013;-56
2023/09/25 06:12:09;;;;;;;301.55;68.40;;;;;;;;;;5040598;28;20060;-56
2023/09/25 06:14:35;;;;;;;438.85;74.43;;;;;;;;;;5038541;28;20064;-58
2023/09/25 06:17:00;;;;;;;334.65;76.15;;;;;;;;;;5039548;28;20079;-56
2023/09/25 06:19:25;;;;;;;410.17;83.25;;;;;;;;;;5040788;28;20053;-56
2023/09/25 06:21:51;;;;;;;327.55;80.00;;;;;;;;;;5040538;28;20320;-56
2023/09/25 06:24:16;;;;;;;354.95;81.40;;;;;;;;;;5040953;28;20029;-56
2023/09/25 06:26:46;;;;;;;272.30;76.17;;;;;;;;;;5038984;28;20032;-57
2023/09/25 06:29:11;;;;;;;373.17;76.82;;;;;;;;;;5040421;28;20251;-58
2023/09/25 06:31:37;;;;;;;314.05;61.17;;;;;;;;;;5039660;28;20025;-56
2023/09/25 06:34:03;;;;;;;242.68;56.40;;;;;;;;;;5040876;28;20029;-56
2023/09/25 06:36:28;;;;;;;403.75;70.13;;;;;;;;;;5037765;28;20042;-55
2023/09/25 06:38:53;;;;;;;278.97;71.80;;;;;;;;;;5040800;28;20017;-57
2023/09/25 06:41:18;;;;;;;288.90;70.57;;;;;;;;;;5038519;28;20313;-57
2023/09/25 06:43:44;;;;;;;309.67;66.28;;;;;;;;;;5039390;28;21066;-56
2023/09/25 06:46:09;;;;;;;226.77;50.10;;;;;;;;;;5039593;28;20102;-57
2023/09/25 06:48:35;;;;;;;214.10;45.10;;;;;;;;;;5022060;28;20698;-55
2023/09/25 06:51:01;;;;;;;292.65;45.17;;;;;;;;;;5039723;28;20291;-56
2023/09/25 06:53:26;;;;;;;229.38;34.33;;;;;;;;;;5038443;28;20070;-57
2023/09/25 06:55:51;;;;;;;243.85;76.82;;;;;;;;;;5040323;28;20458;-57
2023/09/25 06:58:17;;;;;;;531.88;286.35;;;;;;;;;;5040280;28;20103;-55
2023/09/25 07:00:45;;;;;;;211.53;57.47;;;;;;;;;;5039232;28;20057;-54
2023/09/25 07:03:10;;;;;;;160.45;10.60;;;;;;;;;;5039039;28;20703;-57
2023/09/25 07:05:36;;;;;;;260.45;14.60;;;;;;;;;;5038390;28;20514;-56
2023/09/25 07:08:01;;;;;;;149.90;23.83;;;;;;;;;;5039943;28;20103;-56
2023/09/25 07:10:26;;;;;;;282.53;47.23;;;;;;;;;;5038693;28;20056;-58
2023/09/25 07:12:52;;;;;;;282.75;28.23;;;;;;;;;;5038094;28;20391;-56
2023/09/25 07:15:18;;;;;;;168.30;18.47;;;;;;;;;;5039187;28;20017;-55
2023/09/25 07:17:43;;;;;;;201.48;95.80;;;;;;;;;;5037256;28;20889;-55
2023/09/25 07:20:09;;;;;;;272.15;124.32;;;;;;;;;;5039066;28;20021;-55
2023/09/25 07:22:35;;;;;;;388.48;154.60;;;;;;;;;;5038062;28;20601;-55
2023/09/25 07:25:00;;;;;;;385.37;201.40;;;;;;;;;;5037531;28;20021;-55
2023/09/25 07:27:27;;;;;;;393.23;75.73;;;;;;;;;;5036550;28;20276;-53
2023/09/25 07:29:53;;;;;;;169.20;14.52;;;;;;;;;;5038689;28;20614;-55
2023/09/25 07:32:18;;;;;;;193.23;12.93;;;;;;;;;;5038159;28;20524;-56
2023/09/25 07:34:44;;;;;;;303.40;102.57;;;;;;;;;;5038514;28;20506;-56
2023/09/25 07:37:12;;;;;;;183.10;25.83;;;;;;;;;;5038366;28;20033;-56
2023/09/25 07:39:40;;;;;;;330.98;108.90;;;;;;;;;;5036175;28;20041;-55
2023/09/25 07:42:05;;;;;;;292.70;88.25;;;;;;;;;;5038102;28;20049;-56
2023/09/25 07:44:33;;;;;;;456.77;203.93;;;;;;;;;;5036668;28;20079;-55
2023/09/25 07:46:59;;;;;;;434.13;289.42;;;;;;;;;;5037218;28;20060;-55
2023/09/25 07:49:29;;;;;;;474.40;299.67;;;;;;;;;;5037471;28;20102;-54
2023/09/25 07:51:54;;;;;;;394.63;266.08;;;;;;;;;;5037278;28;20058;-56
2023/09/25 07:54:20;;;;;;;435.80;256.35;;;;;;;;;;5037748;28;20039;-56
2023/09/25 07:56:46;;;;;;;456.80;287.48;;;;;;;;;;5037142;28;20120;-56
2023/09/25 07:59:13;;;;;;;351.05;181.90;;;;;;;;;;5037603;28;20048;-56
2023/09/25 08:01:39;;;;;;;489.98;246.10;;;;;;;;;;5036785;28;20040;-55
2023/09/25 08:04:04;;;;;;;425.67;309.90;;;;;;;;;;5036625;28;20186;-57
2023/09/25 08:06:30;;;;;;;459.05;228.80;;;;;;;;;;5034305;28;20140;-58
2023/09/25 08:08:59;;;;;;;480.77;292.77;;;;;;;;;;5036584;28;20518;-55
2023/09/25 08:11:24;;;;;;;401.33;250.65;;;;;;;;;;5035211;28;20268;-56
2023/09/25 08:13:53;;;;;;;432.42;329.00;;;;;;;;;;5038247;28;20040;-56
2023/09/25 08:16:19;;;;;;;369.58;156.25;;;;;;;;;;5037235;28;20025;-55
2023/09/25 08:18:45;;;;;;;272.77;81.28;;;;;;;;;;5037629;28;20612;-56
2023/09/25 08:21:10;;;;;;;272.50;81.47;;;;;;;;;;5037911;28;20029;-55
2023/09/25 08:23:35;;;;;;;554.30;213.52;;;;;;;;;;5036008;28;20013;-55
2023/09/25 08:26:01;;;;;;;519.20;369.47;;;;;;;;;;5037154;28;20033;-57
2023/09/25 08:28:26;;;;;;;271.37;101.40;;;;;;;;;;5035906;28;20291;-56
2023/09/25 08:30:51;;;;;;;539.47;345.43;;;;;;;;;;5036320;28;20517;-55
2023/09/25 08:33:16;;;;;;;304.07;75.63;;;;;;;;;;5036838;28;20021;-56
2023/09/25 08:35:42;;;;;;;548.60;259.95;;;;;;;;;;5017198;28;21009;-55
2023/09/25 08:38:08;;;;;;;394.42;175.25;;;;;;;;;;5036561;28;20746;-55
2023/09/25 08:40:34;;;;;;;503.27;266.67;;;;;;;;;;5036376;28;20029;-56
2023/09/25 08:43:00;;;;;;;427.70;250.38;;;;;;;;;;5037305;28;20025;-57
2023/09/25 08:45:26;;;;;;;517.58;329.65;;;;;;;;;;5036512;28;20536;-56
2023/09/25 08:47:51;;;;;;;477.23;297.17;;;;;;;;;;5037965;28;20099;-55
2023/09/25 08:50:17;;;;;;;361.87;259.30;;;;;;;;;;5037375;28;20478;-56
2023/09/25 08:52:42;;;;;;;576.35;278.67;;;;;;;;;;5036427;28;20009;-56
2023/09/25 08:55:08;;;;;;;528.22;361.55;;;;;;;;;;5038354;28;20056;-56
2023/09/25 08:57:35;;;;;;;553.33;307.30;;;;;;;;;;5035907;28;20029;-56
2023/09/25 09:00:03;;;;;;;489.95;322.33;;;;;;;;;;5037324;28;20649;-56
2023/09/25 09:02:28;;;;;;;466.38;327.10;;;;;;;;;;5036333;28;20044;-55
2023/09/25 09:04:53;;;;;;;412.53;267.03;;;;;;;;;;5039378;28;20021;-56
2023/09/25 09:07:18;;;;;;;292.00;105.23;;;;;;;;;;5039194;28;20040;-56
2023/09/25 09:09:44;;;;;;;507.20;295.33;;;;;;;;;;5038680;28;20452;-56
2023/09/25 09:12:09;;;;;;;405.50;269.85;;;;;;;;;;5040343;28;20287;-55
2023/09/25 09:14:39;;;;;;;531.38;269.40;;;;;;;;;;5038373;28;20040;-57
2023/09/25 09:17:05;;;;;;;360.27;278.40;;;;;;;;;;5039955;28;20029;-57
2023/09/25 09:19:35;;;;;;;413.65;254.98;;;;;;;;;;5039050;28;20117;-56
2023/09/25 09:22:05;;;;;;;391.58;227.93;;;;;;;;;;5040861;28;20048;-58
2023/09/25 09:24:32;;;;;;;445.08;272.40;;;;;;;;;;5038668;28;20449;-55
2023/09/25 09:26:57;;;;;;;482.70;184.70;;;;;;;;;;5032173;28;20036;-56
2023/09/25 09:29:23;;;;;;;602.03;348.65;;;;;;;;;;5019006;28;20021;-56
2023/09/25 09:31:50;;;;;;;617.27;451.40;;;;;;;;;;5035090;28;20090;-57
2023/09/25 09:34:20;;;;;;;450.33;291.30;;;;;;;;;;5037329;28;20065;-57
2023/09/25 09:36:51;;;;;;;766.45;519.55;;;;;;;;;;5035871;28;20033;-55
2023/09/25 09:39:17;;;;;;;;;;;;;;;;;;5037477;28;20037;-56
2023/09/25 09:41:44;;;;;;;743.85;409.95;;;;;;;;;;5035988;28;19970;-56
2023/09/25 09:44:09;;;;;;;744.83;441.20;;;;;;;;;;5037440;28;20036;-57
2023/09/25 09:46:35;;;;;;;706.30;343.47;;;;;;;;;;5036530;28;20029;-58
2023/09/25 09:49:02;;;;;;;486.38;240.70;;;;;;;;;;5037864;28;20020;-56
2023/09/25 09:51:27;;;;;;;677.15;416.95;;;;;;;;;;5037156;28;20036;-56
2023/09/25 09:53:53;;;;;;;850.83;484.35;;;;;;;;;;5036674;28;20024;-56
2023/09/25 09:56:20;;;;;;;702.33;448.80;;;;;;;;;;5037023;28;20375;-56
2023/09/25 09:58:46;;;;;;;835.72;526.75;;;;;;;;;;5036486;28;20191;-55
2023/09/25 10:01:12;;;;;;;530.97;295.48;;;;;;;;;;5036541;28;20037;-56
2023/09/25 10:03:37;;;;;;;621.35;325.70;;;;;;;;;;5036003;28;20490;-56
2023/09/25 10:06:02;;;;;;;562.15;345.08;;;;;;;;;;5036855;28;20111;-57
2023/09/25 10:08:29;;;;;;;688.70;453.83;;;;;;;;;;5037084;28;20036;-56
2023/09/25 10:11:12;;;;;;;492.42;346.75;;;;;;;;;;5034911;28;20705;-54
2023/09/25 10:13:37;;;;;;;730.83;451.23;;;;;;;;;;5037061;28;20017;-55
2023/09/25 10:16:03;;;;;;;407.60;161.23;;;;;;;;;;5036190;28;20037;-55
2023/09/25 10:18:31;;;;;;;561.67;253.20;;;;;;;;;;5037341;28;20271;-57
2023/09/25 10:21:14;;;;;;;566.20;385.38;;;;;;;;;;5036612;28;20039;-56
2023/09/25 10:23:49;;;;;;;714.72;397.38;;;;;;;;;;5036238;28;20068;-54
2023/09/25 10:26:18;;;;;;;488.80;281.92;;;;;;;;;;5035909;28;20120;-55
2023/09/25 10:28:55;;;;;;;719.95;439.25;;;;;;;;;;5035940;28;20312;-54
2023/09/25 10:31:21;;;;;;;763.47;534.30;;;;;;;;;;5036996;28;20040;-55
2023/09/25 10:34:00;;;;;;;596.30;273.10;;;;;;;;;;5036645;28;20567;-57
2023/09/25 10:36:39;;;;;;;565.50;307.45;;;;;;;;;;5036462;28;20132;-56
2023/09/25 10:39:06;;;;;;;662.47;387.55;;;;;;;;;;5037969;28;20017;-55
2023/09/25 10:41:31;;;;;;;467.10;318.77;;;;;;;;;;5036554;28;20219;-54
2023/09/25 10:43:57;;;;;;;764.08;500.63;;;;;;;;;;5035432;28;20037;-55
2023/09/25 10:46:22;;;;;;;480.77;223.32;;;;;;;;;;5019432;28;20060;-54
2023/09/25 10:48:47;;;;;;;719.17;436.70;;;;;;;;;;5035799;28;20013;-57
2023/09/25 10:51:14;;;;;;;646.50;361.40;;;;;;;;;;5035863;28;20131;-55
2023/09/25 10:53:40;;;;;;;692.92;390.30;;;;;;;;;;5036642;28;20024;-56
2023/09/25 10:56:05;;;;;;;437.73;176.87;;;;;;;;;;5035459;28;20031;-57
2023/09/25 10:58:31;;;;;;;643.37;386.30;;;;;;;;;;5036328;28;20272;-57
2023/09/25 11:00:56;;;;;;;547.92;358.50;;;;;;;;;;5034814;28;20581;-55
2023/09/25 11:03:22;;;;;;;580.93;410.83;;;;;;;;;;5036218;28;20674;-58
2023/09/25 11:05:48;;;;;;;738.97;417.27;;;;;;;;;;5033770;28;20279;-57
2023/09/25 11:08:15;;;;;;;508.77;346.38;;;;;;;;;;5036560;28;20468;-56
2023/09/25 11:10:41;;;;;;;637.35;480.75;;;;;;;;;;5035182;28;20281;-55
2023/09/25 11:13:06;;;;;;;601.97;488.55;;;;;;;;;;5035870;28;20730;-58
2023/09/25 11:15:38;;;;;;;529.93;349.97;;;;;;;;;;5035317;28;20087;-56
2023/09/25 11:18:06;;;;;;;647.00;401.40;;;;;;;;;;5036406;28;20064;-58
2023/09/25 11:20:33;;;;;;;783.25;506.02;;;;;;;;;;5035467;28;20024;-54
2023/09/25 11:23:04;;;;;;;672.78;401.80;;;;;;;;;;5035834;28;20052;-56
2023/09/25 11:25:30;;;;;;;738.33;471.88;;;;;;;;;;5034730;28;20125;-55
2023/09/25 11:27:56;;;;;;;513.70;400.50;;;;;;;;;;5033935;28;20023;-56
2023/09/25 11:30:26;;;;;;;589.50;380.13;;;;;;;;;;5035964;28;20337;-57
2023/09/25 11:32:52;;;;;;;908.85;394.40;;;;;;;;;;5034431;28;20051;-56
2023/09/25 11:35:17;;;;;;;521.70;289.67;;;;;;;;;;5035347;28;20017;-55
2023/09/25 11:37:59;;;;;;;590.47;203.25;;;;;;;;;;5034285;28;20017;-56
2023/09/25 11:40:25;;;;;;;745.78;471.90;;;;;;;;;;5034130;28;20076;-57
2023/09/25 11:42:51;;;;;;;960.05;501.63;;;;;;;;;;5033450;28;20041;-54
2023/09/25 11:45:16;;;;;;;597.38;246.45;;;;;;;;;;5033580;28;20540;-55
2023/09/25 11:47:42;;;;;;;452.92;108.32;;;;;;;;;;5034771;28;20116;-55
2023/09/25 11:50:10;;;;;;;418.58;215.88;;;;;;;;;;5035117;28;20032;-57
2023/09/25 11:52:35;;;;;;;540.83;187.15;;;;;;;;;;5036547;28;20079;-55
2023/09/25 11:55:00;;;;;;;622.80;306.15;;;;;;;;;;5035656;28;20360;-54
2023/09/25 11:57:26;;;;;;;669.83;346.33;;;;;;;;;;5034328;28;20139;-55
2023/09/25 11:59:52;;;;;;;839.13;395.70;;;;;;;;;;5033512;28;20100;-55
2023/09/25 12:02:17;;;;;;;437.42;100.25;;;;;;;;;;5034974;28;20414;-55
2023/09/25 12:04:42;;;;;;;608.40;136.23;;;;;;;;;;5034226;28;20885;-56
2023/09/25 12:07:08;;;;;;;485.17;106.55;;;;;;;;;;5034242;28;20106;-55
2023/09/25 12:09:34;;;;;;;713.92;389.55;;;;;;;;;;5034725;28;20016;-57
2023/09/25 12:11:59;;;;;;;827.80;465.83;;;;;;;;;;5032471;28;21287;-57
2023/09/25 12:14:24;;;;;;;568.00;139.37;;;;;;;;;;5034576;28;20263;-56
2023/09/25 12:16:50;;;;;;;666.83;153.70;;;;;;;;;;5032684;28;20380;-58
2023/09/25 12:19:16;;;;;;;618.53;248.07;;;;;;;;;;5034955;28;20525;-58
2023/09/25 12:21:41;;;;;;;520.38;112.30;;;;;;;;;;5014562;28;20445;-57
2023/09/25 12:24:07;;;;;;;451.90;123.77;;;;;;;;;;5034846;28;20013;-56
2023/09/25 12:26:32;;;;;;;536.83;144.45;;;;;;;;;;5033142;28;20529;-58
2023/09/25 12:28:57;;;;;;;512.50;120.93;;;;;;;;;;5033927;28;20028;-59
2023/09/25 12:31:23;;;;;;;510.10;113.20;;;;;;;;;;5035206;28;20436;-58
2023/09/25 12:33:49;;;;;;;587.95;146.57;;;;;;;;;;5033676;28;20669;-58
2023/09/25 12:36:15;;;;;;;586.75;153.27;;;;;;;;;;5033356;28;20087;-54
2023/09/25 12:38:40;;;;;;;626.88;183.60;;;;;;;;;;5034637;28;20052;-55
2023/09/25 12:41:06;;;;;;;516.47;130.35;;;;;;;;;;5037972;28;20098;-55
2023/09/25 12:43:31;;;;;;;535.22;140.48;;;;;;;;;;5037559;28;20021;-55
2023/09/25 12:45:56;;;;;;;603.97;131.02;;;;;;;;;;5034664;28;20083;-54
2023/09/25 12:48:23;;;;;;;510.33;156.85;;;;;;;;;;5039454;28;20526;-54
2023/09/25 12:50:49;;;;;;;613.30;150.38;;;;;;;;;;5037340;28;20033;-56
2023/09/25 12:53:14;;;;;;;560.47;174.50;;;;;;;;;;5036184;28;20024;-55
2023/09/25 12:55:39;;;;;;;510.93;153.57;;;;;;;;;;5036156;28;20033;-54
2023/09/25 12:58:04;;;;;;;551.40;157.33;;;;;;;;;;5037252;28;20017;-54
2023/09/25 13:00:30;;;;;;;680.80;298.97;;;;;;;;;;5037928;28;20264;-54
2023/09/25 13:02:55;;;;;;;689.05;159.88;;;;;;;;;;5034531;28;20036;-54
2023/09/25 13:05:20;;;;;;;606.63;173.77;;;;;;;;;;5037200;28;20021;-57
2023/09/25 13:07:46;;;;;;;753.83;192.48;;;;;;;;;;5036035;28;20267;-54
2023/09/25 13:10:12;;;;;;;604.40;177.73;;;;;;;;;;5038165;28;20470;-56
2023/09/25 13:12:39;;;;;;;653.97;184.10;;;;;;;;;;5037214;28;20087;-54
2023/09/25 13:15:06;;;;;;;613.72;198.35;;;;;;;;;;5035433;28;20021;-54
2023/09/25 13:17:31;;;;;;;710.22;224.07;;;;;;;;;;5035501;28;20067;-58
2023/09/25 13:19:59;;;;;;;792.05;191.80;;;;;;;;;;5035852;28;20025;-57
2023/09/25 13:22:24;;;;;;;656.20;262.85;;;;;;;;;;5035616;28;20029;-55
2023/09/25 13:24:49;;;;;;;770.70;200.73;;;;;;;;;;5034660;28;20032;-57
2023/09/25 13:27:14;;;;;;;656.50;220.87;;;;;;;;;;5035296;28;20276;-56
2023/09/25 13:29:40;;;;;;;598.38;202.18;;;;;;;;;;5038429;28;20732;-55
2023/09/25 13:32:05;;;;;;;590.65;198.93;;;;;;;;;;5036689;28;20680;-55
2023/09/25 13:34:31;;;;;;;637.00;208.93;;;;;;;;;;5037094;28;20024;-59
2023/09/25 13:36:57;;;;;;;717.22;214.85;;;;;;;;;;5034752;28;20032;-56
2023/09/25 13:39:22;;;;;;;684.58;206.07;;;;;;;;;;5036854;28;20013;-57
2023/09/25 13:41:47;;;;;;;856.90;237.07;;;;;;;;;;5034086;28;20024;-56
2023/09/25 13:44:12;;;;;;;917.83;424.17;;;;;;;;;;5036799;28;20283;-57
2023/09/25 13:46:38;;;;;;;756.73;275.47;;;;;;;;;;5034178;28;20621;-57
2023/09/25 13:49:03;;;;;;;790.97;286.25;;;;;;;;;;5037092;28;20259;-57
2023/09/25 13:51:28;;;;;;;720.13;229.53;;;;;;;;;;5036796;28;20551;-58